Toyonaka, Japan
Current Conditions -  °F | °C
As of 10:00 AM on Saturday 20 Dec 2014 (Local Time) from RJOO Reporting Station
Light Rain Light Rain  
Wind Chill: 37°   Ceiling: 7000
Heat Index: 45°   Visibility: 6mi
Dew Point: 36°   Wind: 16mph
Humidity: 71%   Direction: 70°ENE
Pressure: 30"   Gusts: 28mph
Location:  34.78°N, 135.48°E
Report Text: RJOO 200100Z 07014G24KT 9999 -RA FEW025 SCT050 BKN070 07/02 Q1016
Loading
Personal Weather Stations






























Interactive Weather Map New forecast layout! Learn more

10-Day Weather Forecast

Advertisements
Track Severe Weather on mobile